Ventura, Iowa
Current Conditions -  °F | °C
As of 8:41 AM on Thursday 23 Oct 2014 (Local Time) from KMCW Reporting Station
Haze Haze  
Wind Chill: 45°   Ceiling: 300
Heat Index: 49°   Visibility: 1.2mi
Dew Point: 49°   Wind: 8mph
Humidity: 100%   Direction: 170°S
Pressure: 30.04"   Gusts: NA
Location:  43.13°N, 93.48°W
Report Text: KMCW 231341Z AUTO 17007KT 1 1/4SM BR OVC003 09/09 A3004 RMK AO2 T00940094
Loading
Personal Weather Stations






























Interactive Weather Map
Tropical Storm Tracking
New forecast layout! Learn more

10-Day Weather Forecast

Advertisements
Track Severe Weather on mobile